Time;durP1;ratioP1;P1;durP2;ratioP2;P2;SDS_P1;SDS_P2;PMS_P1;PMS_P2;Temp;Humidity;BMP_temperature;BMP_pressure;BME280_temperature;BME280_humidity;BME280_pressure;Samples;Min_cycle;Max_cycle;Signal;HPM_P1;HPM_P2
2023/02/05 00:01:12;;;;;;;;;;;;;;;22.52;20.49;97510.56;5018526;28;927;-75
2023/02/05 00:03:38;;;;;;;;;;;;;;;21.81;21.38;97508.25;5018909;28;1902;-75
2023/02/05 00:06:04;;;;;;;;;;;;;;;22.40;20.83;97502.94;5018335;28;928;-76
2023/02/05 00:08:30;;;;;;;;;;;;;;;21.79;21.14;97511.56;5018850;28;915;-76
2023/02/05 00:10:55;;;;;;;;;;;;;;;21.46;21.85;97515.97;5018535;28;963;-75
2023/02/05 00:13:20;;;;;;;;;;;;;;;22.42;20.72;97509.72;5018090;28;1301;-75
2023/02/05 00:15:46;;;;;;;;;;;;;;;22.56;20.36;97525.41;5000981;28;1204;-75
2023/02/05 00:18:11;;;;;;;;;;;;;;;22.00;20.85;97521.34;5018443;28;916;-75
2023/02/05 00:20:37;;;;;;;;;;;;;;;21.99;20.77;97524.63;5018605;28;845;-75
2023/02/05 00:23:02;;;;;;;;;;;;;;;22.14;20.65;97531.41;5018279;28;1981;-75
2023/02/05 00:25:28;;;;;;;;;;;;;;;21.96;21.04;97532.00;5018140;28;907;-76
2023/02/05 00:27:53;;;;;;;;;;;;;;;21.70;21.45;97519.97;5017650;28;1445;-75
2023/02/05 00:30:19;;;;;;;;;;;;;;;22.15;20.78;97532.97;5018183;28;921;-75
2023/02/05 00:32:44;;;;;;;;;;;;;;;21.90;21.21;97516.84;5000668;28;1103;-76
2023/02/05 00:35:09;;;;;;;;;;;;;;;21.94;20.80;97519.56;4984138;28;1223;-76
2023/02/05 00:37:35;;;;;;;;;;;;;;;22.28;20.40;97518.78;5000520;28;1106;-76
2023/02/05 00:40:00;;;;;;;;;;;;;;;22.14;20.41;97525.75;4997111;28;1577;-75
2023/02/05 00:42:27;;;;;;;;;;;;;;;22.25;20.64;97523.31;4995886;28;1362;-76
2023/02/05 00:44:52;;;;;;;;;;;;;;;22.17;20.45;97519.13;4997268;28;1985;-75
2023/02/05 00:47:18;;;;;;;;;;;;;;;22.52;19.98;97521.91;4998215;28;922;-75
2023/02/05 00:49:43;;;;;;;;;;;;;;;21.91;20.73;97526.13;4998090;28;962;-76
2023/02/05 00:52:09;;;;;;;;;;;;;;;22.03;20.36;97522.47;4998258;28;989;-75
2023/02/05 00:54:34;;;;;;;;;;;;;;;21.65;20.83;97531.09;4997980;28;971;-75
2023/02/05 00:57:00;;;;;;;;;;;;;;;21.50;21.15;97527.94;4996360;28;1342;-75
2023/02/05 00:59:25;;;;;;;;;;;;;;;22.16;20.52;97534.56;4963571;28;1231;-75
2023/02/05 01:01:51;;;;;;;;;;;;;;;21.65;20.83;97514.88;4997808;28;873;-75
2023/02/05 01:04:19;;;;;;;;;;;;;;;21.38;21.12;97531.59;4997615;28;1985;-75
2023/02/05 01:06:44;;;;;;;;;;;;;;;21.69;20.82;97518.38;4997667;28;927;-75
2023/02/05 01:09:09;;;;;;;;;;;;;;;21.95;20.70;97535.31;4997790;28;996;-76
2023/02/05 01:11:35;;;;;;;;;;;;;;;22.11;20.54;97535.16;4994822;28;1609;-76
2023/02/05 01:14:00;;;;;;;;;;;;;;;21.92;20.50;97541.91;4997835;28;931;-76
2023/02/05 01:16:26;;;;;;;;;;;;;;;21.97;20.51;97538.47;4996636;28;1095;-75
2023/02/05 01:18:55;;;;;;;;;;;;;;;21.65;21.08;97528.25;4996072;28;1192;-75
2023/02/05 01:21:20;;;;;;;;;;;;;;;21.35;20.82;97530.47;4995143;28;1462;-75
2023/02/05 01:23:46;;;;;;;;;;;;;;;21.88;20.38;97530.69;4980595;28;1972;-75
2023/02/05 01:26:11;;;;;;;;;;;;;;;21.85;20.72;97538.03;4974776;28;1479;-75
2023/02/05 01:28:37;;;;;;;;;;;;;;;21.03;21.33;97539.94;4938445;29;1364;-76
2023/02/05 01:31:02;;;;;;;;;;;;;;;21.73;20.28;97538.88;4937483;29;1101;-75
2023/02/05 01:33:28;;;;;;;;;;;;;;;22.12;20.00;97545.22;4921342;29;1165;-75
2023/02/05 01:35:54;;;;;;;;;;;;;;;22.22;19.99;97543.25;4937301;29;1140;-75
2023/02/05 01:38:19;;;;;;;;;;;;;;;21.67;20.36;97543.53;4921493;29;949;-76
2023/02/05 01:40:45;;;;;;;;;;;;;;;22.25;20.05;97545.97;4937287;28;1848;-76
2023/02/05 01:43:13;;;;;;;;;;;;;;;22.09;19.97;97540.47;4956353;29;1910;-76
2023/02/05 01:45:49;;;;;;;;;;;;;;;22.29;19.81;97549.47;4939426;29;1303;-75
2023/02/05 01:48:15;;;;;;;;;;;;;;;22.14;19.75;97545.56;4940031;29;1268;-75
2023/02/05 01:50:41;;;;;;;;;;;;;;;21.77;20.23;97556.53;4955983;29;1080;-75
2023/02/05 01:53:13;;;;;;;;;;;;;;;22.19;19.87;97550.66;4956063;29;1131;-75
2023/02/05 01:55:40;;;;;;;;;;;;;;;22.07;19.95;97549.44;4954810;29;1366;-75
2023/02/05 01:58:06;;;;;;;;;;;;;;;22.08;20.08;97561.56;4973999;28;1331;-75
2023/02/05 02:00:31;;;;;;;;;;;;;;;21.35;20.09;97476.72;4977903;28;2321;-75
2023/02/05 02:02:57;;;;;;;;;;;;;;;21.85;20.20;97560.69;4994829;28;1983;-76
2023/02/05 02:05:23;;;;;;;;;;;;;;;21.99;20.04;97569.97;4962433;28;1427;-76
2023/02/05 02:07:48;;;;;;;;;;;;;;;21.68;20.56;97556.44;4994187;28;997;-75
2023/02/05 02:10:14;;;;;;;;;;;;;;;21.72;20.23;97557.13;4994728;28;1180;-76
2023/02/05 02:12:40;;;;;;;;;;;;;;;22.08;19.95;97572.88;4961617;28;1323;-75
2023/02/05 02:15:10;;;;;;;;;;;;;;;22.02;19.82;97574.69;4958619;28;1167;-75
2023/02/05 02:17:38;;;;;;;;;;;;;;;21.57;20.53;97562.47;4990744;28;1023;-76
2023/02/05 02:20:10;;;;;;;;;;;;;;;21.74;20.38;97565.16;4959237;28;1001;-75
2023/02/05 02:22:41;;;;;;;;;;;;;;;22.10;19.79;97576.03;4974974;28;1803;-75
2023/02/05 02:25:19;;;;;;;;;;;;;;;21.98;19.97;97577.69;4974670;28;1977;-75
2023/02/05 02:27:47;;;;;;;;;;;;;;;22.42;19.20;97591.13;4958001;28;1785;-75
2023/02/05 02:30:30;;;;;;;;;;;;;;;22.38;19.43;97590.47;4974199;28;1508;-75
2023/02/05 02:33:06;;;;;;;;;;;;;;;22.20;19.51;97603.25;4974771;28;960;-75
2023/02/05 02:35:40;;;;;;;;;;;;;;;21.72;19.92;97608.09;4974695;28;1106;-75
2023/02/05 02:38:24;;;;;;;;;;;;;;;21.69;20.12;97613.88;4958706;28;1258;-75
2023/02/05 02:40:53;;;;;;;;;;;;;;;21.90;19.79;97615.19;4975562;28;1337;-75
2023/02/05 02:43:20;;;;;;;;;;;;;;;21.75;19.91;97612.03;4967342;28;1978;-75
2023/02/05 02:45:47;;;;;;;;;;;;;;;21.96;19.69;97613.38;4993865;28;919;-75
2023/02/05 02:48:13;;;;;;;;;;;;;;;22.35;19.11;97626.22;4977987;28;1027;-75
2023/02/05 02:50:40;;;;;;;;;;;;;;;22.22;19.25;97623.41;4978066;28;996;-75
2023/02/05 02:53:10;;;;;;;;;;;;;;;22.02;19.40;97626.50;4993276;28;1279;-75
2023/02/05 02:55:37;;;;;;;;;;;;;;;21.61;20.08;97632.34;5014322;28;1282;-75
2023/02/05 02:58:02;;;;;;;;;;;;;;;22.33;19.26;97638.00;5014218;28;1384;-75
2023/02/05 03:00:28;;;;;;;;;;;;;;;21.84;19.47;97644.09;5002428;28;916;-75
2023/02/05 03:02:56;;;;;;;;;;;;;;;21.85;19.54;97661.88;5017792;28;1902;-75
2023/02/05 03:05:22;;;;;;;;;;;;;;;22.14;19.28;97650.41;5018740;28;1076;-75
2023/02/05 03:07:54;;;;;;;;;;;;;;;21.72;19.48;97653.41;5018140;28;1328;-75
2023/02/05 03:10:24;;;;;;;;;;;;;;;21.38;20.23;97656.91;5018558;28;1077;-75
2023/02/05 03:12:50;;;;;;;;;;;;;;;22.24;19.27;97660.59;5014835;28;1457;-75
2023/02/05 03:15:15;;;;;;;;;;;;;;;21.76;19.45;97653.25;4982739;28;1429;-76
2023/02/05 03:17:41;;;;;;;;;;;;;;;21.87;19.58;97659.41;5017356;28;1388;-75
2023/02/05 03:20:17;;;;;;;;;;;;;;;22.01;19.22;97669.44;5000909;28;963;-75
2023/02/05 03:22:43;;;;;;;;;;;;;;;21.71;19.64;97657.50;5001079;28;959;-75
2023/02/05 03:25:08;;;;;;;;;;;;;;;21.65;19.40;97669.81;4999769;28;1989;-75
2023/02/05 03:27:34;;;;;;;;;;;;;;;21.90;19.40;97663.34;5017230;28;1190;-75
2023/02/05 03:30:01;;;;;;;;;;;;;;;22.15;19.09;97666.16;4998827;28;1390;-76
2023/02/05 03:32:49;;;;;;;;;;;;;;;21.83;19.23;97670.84;5000640;28;1150;-76
2023/02/05 03:35:19;;;;;;;;;;;;;;;21.75;19.34;97674.34;5000511;28;1036;-76
2023/02/05 03:38:02;;;;;;;;;;;;;;;21.56;19.46;97673.34;4977914;28;1551;-75
2023/02/05 03:40:45;;;;;;;;;;;;;;;22.00;18.91;97684.84;4977497;28;1262;-76
2023/02/05 03:43:10;;;;;;;;;;;;;;;22.26;18.66;97683.59;4958075;29;1903;-76
2023/02/05 03:45:37;;;;;;;;;;;;;;;21.73;19.26;97682.50;4952050;29;1506;-76
2023/02/05 03:48:11;;;;;;;;;;;;;;;21.90;18.92;97688.84;4953514;29;1199;-75
2023/02/05 03:50:39;;;;;;;;;;;;;;;21.89;19.20;97690.88;4939221;29;952;-75
2023/02/05 03:53:23;;;;;;;;;;;;;;;21.83;18.87;97693.50;4938917;29;1434;-76
2023/02/05 03:55:54;;;;;;;;;;;;;;;21.28;19.45;97704.06;4938299;29;1493;-75
2023/02/05 03:58:22;;;;;;;;;;;;;;;22.00;18.95;97690.53;4938629;29;1004;-75
2023/02/05 04:00:49;;;;;;;;;;;;;;;21.66;18.98;97694.88;4954924;29;1131;-76
2023/02/05 04:03:15;;;;;;;;;;;;;;;22.21;18.64;97692.66;4954521;29;1907;-76
2023/02/05 04:05:41;;;;;;;;;;;;;;;22.23;18.54;97690.19;4939160;29;1025;-76
2023/02/05 04:08:07;;;;;;;;;;;;;;;21.63;19.30;97695.75;4962094;28;1181;-76
2023/02/05 04:10:39;;;;;;;;;;;;;;;21.76;19.07;97705.06;4977070;28;1419;-76
2023/02/05 04:13:05;;;;;;;;;;;;;;;22.07;18.51;97727.94;4938667;29;1199;-76
2023/02/05 04:15:32;;;;;;;;;;;;;;;21.72;18.66;97718.53;4938456;29;1234;-76
2023/02/05 04:18:00;;;;;;;;;;;;;;;21.94;18.63;97732.00;4938703;29;1317;-76
2023/02/05 04:20:27;;;;;;;;;;;;;;;21.68;18.92;97737.66;4938379;29;1154;-76
2023/02/05 04:22:53;;;;;;;;;;;;;;;21.59;19.00;97740.38;4938682;29;906;-75
2023/02/05 04:25:19;;;;;;;;;;;;;;;21.88;18.59;97739.50;4938223;29;1919;-76
2023/02/05 04:27:46;;;;;;;;;;;;;;;21.69;18.83;97750.56;4955279;29;1643;-76
2023/02/05 04:30:12;;;;;;;;;;;;;;;21.89;18.81;97760.91;4957300;28;969;-76
2023/02/05 04:32:41;;;;;;;;;;;;;;;22.02;18.69;97758.84;4940184;29;1624;-75
2023/02/05 04:35:07;;;;;;;;;;;;;;;21.85;18.85;97764.63;4955599;28;1560;-76
2023/02/05 04:37:32;;;;;;;;;;;;;;;22.51;17.99;97753.59;4957246;28;1250;-76
2023/02/05 04:39:58;;;;;;;;;;;;;;;22.06;18.23;97762.38;4941387;29;1140;-76
2023/02/05 04:42:24;;;;;;;;;;;;;;;21.70;19.06;97777.66;4941212;29;938;-76
2023/02/05 04:44:50;;;;;;;;;;;;;;;21.29;19.15;97784.09;4941042;29;1914;-76
2023/02/05 04:47:15;;;;;;;;;;;;;;;21.43;19.15;97782.94;4957537;29;1016;-75
2023/02/05 04:49:40;;;;;;;;;;;;;;;21.59;18.98;97797.00;4965554;28;1468;-76
2023/02/05 04:52:06;;;;;;;;;;;;;;;21.67;18.76;97804.03;5016557;28;1092;-76
2023/02/05 04:54:32;;;;;;;;;;;;;;;21.90;18.86;97799.31;5015234;28;1474;-76
2023/02/05 04:56:57;;;;;;;;;;;;;;;21.55;18.89;97793.47;5017690;28;944;-76
2023/02/05 04:59:23;;;;;;;;;;;;;;;22.15;18.22;97799.34;5016992;28;1307;-76
2023/02/05 05:01:48;;;;;;;;;;;;;;;21.44;18.92;97795.81;4999240;28;1000;-75
2023/02/05 05:04:14;;;;;;;;;;;;;;;21.51;18.95;97801.31;5016278;28;1983;-76
2023/02/05 05:06:39;;;;;;;;;;;;;;;21.95;18.38;97807.25;4998748;28;1190;-75
2023/02/05 05:09:05;;;;;;;;;;;;;;;22.00;18.45;97812.34;5017253;28;897;-76
2023/02/05 05:11:30;;;;;;;;;;;;;;;22.12;18.03;97827.78;5016132;28;1090;-76
2023/02/05 05:13:56;;;;;;;;;;;;;;;21.66;18.87;97819.44;5017156;28;1000;-76
2023/02/05 05:16:21;;;;;;;;;;;;;;;22.13;18.36;97829.41;4999909;28;996;-76
2023/02/05 05:18:47;;;;;;;;;;;;;;;21.51;18.97;97829.59;5017428;28;977;-76
2023/02/05 05:21:12;;;;;;;;;;;;;;;21.75;18.74;97839.38;4998566;28;1044;-76
2023/02/05 05:23:38;;;;;;;;;;;;;;;21.85;18.68;97829.78;5015802;28;1910;-77
2023/02/05 05:26:07;;;;;;;;;;;;;;;21.38;18.92;97843.69;5015839;28;917;-76
2023/02/05 05:28:33;;;;;;;;;;;;;;;21.70;18.67;97853.31;5015859;28;891;-76
2023/02/05 05:30:59;;;;;;;;;;;;;;;22.09;18.47;97855.75;5015548;28;928;-76
2023/02/05 05:33:25;;;;;;;;;;;;;;;21.96;18.45;97854.16;5017102;28;906;-76
2023/02/05 05:35:50;;;;;;;;;;;;;;;21.99;18.39;97864.59;5016963;28;872;-77
2023/02/05 05:38:16;;;;;;;;;;;;;;;22.53;17.72;97861.69;5015880;28;1104;-77
2023/02/05 05:43:46;;;;;;;;;;;;;;;22.20;18.12;97874.50;5016557;28;1902;-77
2023/02/05 05:46:20;;;;;;;;;;;;;;;22.04;18.37;97886.69;5016881;28;771;-77
2023/02/05 05:48:46;;;;;;;;;;;;;;;22.02;18.30;97892.00;5015267;28;829;-76
2023/02/05 05:51:12;;;;;;;;;;;;;;;21.70;18.52;97892.94;5015236;28;767;-76
2023/02/05 05:53:37;;;;;;;;;;;;;;;22.56;17.52;97911.03;5016539;28;728;-76
2023/02/05 05:56:03;;;;;;;;;;;;;;;21.99;18.26;97905.06;5016090;28;910;-77
2023/02/05 05:58:28;;;;;;;;;;;;;;;22.01;18.26;97913.09;4997783;28;1001;-76
2023/02/05 06:00:54;;;;;;;;;;;;;;;22.43;18.00;97918.72;5016447;28;904;-76
2023/02/05 06:03:21;;;;;;;;;;;;;;;22.13;18.28;97922.91;5015063;28;1906;-77
2023/02/05 06:05:46;;;;;;;;;;;;;;;21.84;18.34;97927.31;5015612;28;943;-77
2023/02/05 06:08:12;;;;;;;;;;;;;;;22.31;17.93;97928.81;5015587;28;1262;-77
2023/02/05 06:10:38;;;;;;;;;;;;;;;22.11;18.04;97929.00;5016541;28;932;-76
2023/02/05 06:13:03;;;;;;;;;;;;;;;22.25;18.00;97933.47;5016463;28;888;-76
2023/02/05 06:15:29;;;;;;;;;;;;;;;22.02;18.49;97937.34;5015067;28;898;-77
2023/02/05 06:17:54;;;;;;;;;;;;;;;21.70;18.45;97950.38;4997529;28;1005;-76
2023/02/05 06:20:20;;;;;;;;;;;;;;;21.58;18.86;97951.13;5015140;28;949;-77
2023/02/05 06:22:45;;;;;;;;;;;;;;;21.90;18.26;97958.72;5016035;28;942;-76
2023/02/05 06:25:10;;;;;;;;;;;;;;;22.05;18.44;97953.44;5015800;28;1993;-76
2023/02/05 06:27:36;;;;;;;;;;;;;;;21.94;18.28;97961.47;5014764;28;946;-76
2023/02/05 06:30:01;;;;;;;;;;;;;;;22.24;18.14;97966.69;5015828;28;925;-77
2023/02/05 06:32:27;;;;;;;;;;;;;;;21.89;18.53;97973.34;5016085;28;1064;-76
2023/02/05 06:34:52;;;;;;;;;;;;;;;22.60;17.49;97979.78;5016134;28;969;-77
2023/02/05 06:37:17;;;;;;;;;;;;;;;22.39;17.88;97983.28;4982640;28;1010;-77
2023/02/05 06:39:43;;;;;;;;;;;;;;;22.36;18.00;98002.75;4998186;28;1120;-77
2023/02/05 06:42:08;;;;;;;;;;;;;;;22.29;17.78;97991.63;5016013;28;988;-76
2023/02/05 06:44:34;;;;;;;;;;;;;;;22.10;18.08;97990.56;4998783;28;1906;-77
2023/02/05 06:47:00;;;;;;;;;;;;;;;21.51;18.41;97997.44;5015886;28;953;-76
2023/02/05 06:49:25;;;;;;;;;;;;;;;21.94;18.24;97998.28;5015662;28;1046;-77
2023/02/05 06:51:50;;;;;;;;;;;;;;;22.03;17.99;98006.94;5014678;28;968;-76
2023/02/05 06:54:16;;;;;;;;;;;;;;;22.27;18.08;98011.13;5016014;28;946;-76
2023/02/05 06:56:41;;;;;;;;;;;;;;;22.48;17.50;98012.53;5015662;28;969;-76
2023/02/05 06:59:07;;;;;;;;;;;;;;;21.92;18.08;98006.47;5014539;28;1044;-77
2023/02/05 07:01:32;;;;;;;;;;;;;;;21.92;18.19;98006.47;5014924;28;1093;-77
2023/02/05 07:03:58;;;;;;;;;;;;;;;21.92;17.95;98004.41;5014941;28;1982;-76
2023/02/05 07:06:23;;;;;;;;;;;;;;;21.63;18.26;98004.38;4980882;28;1404;-76
2023/02/05 07:08:49;;;;;;;;;;;;;;;21.91;17.95;98004.84;4974280;28;1223;-77
2023/02/05 07:11:15;;;;;;;;;;;;;;;21.94;17.90;98006.78;4958530;28;919;-76
2023/02/05 07:13:40;;;;;;;;;;;;;;;21.83;17.94;98001.44;4958641;28;1096;-77
2023/02/05 07:16:06;;;;;;;;;;;;;;;21.64;18.38;98011.63;4974299;28;986;-77
2023/02/05 07:18:32;;;;;;;;;;;;;;;21.85;18.19;97999.72;4974124;28;1050;-77
2023/02/05 07:20:57;;;;;;;;;;;;;;;21.98;17.79;97993.34;4974583;28;1033;-76
2023/02/05 07:23:22;;;;;;;;;;;;;;;22.39;17.46;97994.63;4974152;28;1910;-77
2023/02/05 07:25:48;;;;;;;;;;;;;;;22.28;17.39;97994.94;4974055;28;1055;-77
2023/02/05 07:28:13;;;;;;;;;;;;;;;22.75;16.90;97982.97;4974392;28;950;-76
2023/02/05 07:30:39;;;;;;;;;;;;;;;22.10;17.45;97989.72;4974296;28;926;-76
2023/02/05 07:33:04;;;;;;;;;;;;;;;21.49;18.04;97982.91;4958137;28;1105;-77
2023/02/05 07:35:30;;;;;;;;;;;;;;;22.15;17.86;97992.03;4974246;28;954;-77
2023/02/05 07:37:55;;;;;;;;;;;;;;;22.10;17.64;97989.72;4974034;28;949;-76
2023/02/05 07:40:21;;;;;;;;;;;;;;;22.07;17.50;97982.13;5004242;28;1058;-76
2023/02/05 07:42:48;;;;;;;;;;;;;;;22.22;17.54;97985.38;5016209;28;1007;-76
2023/02/05 07:45:13;;;;;;;;;;;;;;;21.60;17.98;97982.63;5018593;28;2043;-76
2023/02/05 07:47:39;;;;;;;;;;;;;;;21.68;17.79;97981.19;5019400;28;979;-77
2023/02/05 07:50:05;;;;;;;;;;;;;;;22.03;17.36;97987.13;5019114;28;1089;-77
2023/02/05 07:52:30;;;;;;;;;;;;;;;22.03;17.75;97978.63;5019122;28;1079;-76
2023/02/05 07:54:56;;;;;;;;;;;;;;;21.78;17.69;97977.28;5019117;28;945;-76
2023/02/05 07:57:21;;;;;;;;;;;;;;;22.40;17.16;97979.97;5017819;28;897;-76
2023/02/05 07:59:47;;;;;;;;;;;;;;;21.87;17.74;97976.63;5019270;28;901;-76
2023/02/05 08:02:12;;;;;;;;;;;;;;;21.62;17.89;97977.31;5018754;28;925;-77
2023/02/05 08:04:38;;;;;;;;;;;;;;;22.20;17.38;97980.16;5018604;28;1977;-77
2023/02/05 08:07:03;;;;;;;;;;;;;;;22.16;17.35;97987.97;5018612;28;1016;-76
2023/02/05 08:09:28;;;;;;;;;;;;;;;22.11;17.16;97980.00;5018569;28;931;-76
2023/02/05 08:11:54;;;;;;;;;;;;;;;21.56;17.69;97984.78;5018724;28;1022;-76
2023/02/05 08:14:19;;;;;;;;;;;;;;;22.07;17.49;97979.28;5018346;28;1035;-76
2023/02/05 08:16:45;;;;;;;;;;;;;;;21.85;17.46;97970.59;5018972;28;989;-76
2023/02/05 08:19:14;;;;;;;;;;;;;;;21.74;17.78;97979.41;5017875;28;923;-77
2023/02/05 08:21:39;;;;;;;;;;;;;;;21.81;17.43;97993.38;5018688;28;968;-77
2023/02/05 08:24:05;;;;;;;;;;;;;;;22.11;17.18;97988.50;5018570;28;1992;-77
2023/02/05 08:26:30;;;;;;;;;;;;;;;21.76;17.51;97987.44;5017337;28;959;-77
2023/02/05 08:28:56;;;;;;;;;;;;;;;22.04;17.17;97997.19;5018756;28;910;-76
2023/02/05 08:31:21;;;;;;;;;;;;;;;21.90;17.13;97986.25;5018349;28;924;-76
2023/02/05 08:33:49;;;;;;;;;;;;;;;21.77;17.36;97995.50;5018193;28;1256;-77
2023/02/05 08:36:15;;;;;;;;;;;;;;;22.17;16.94;98000.88;5017032;28;965;-76
2023/02/05 08:38:40;;;;;;;;;;;;;;;21.77;17.22;97995.50;5016902;28;994;-77
2023/02/05 08:41:12;;;;;;;;;;;;;;;22.03;17.06;97995.63;5018823;28;896;-76
2023/02/05 08:43:41;;;;;;;;;;;;;;;22.36;16.79;97999.91;5017917;28;1989;-76
2023/02/05 08:46:07;;;;;;;;;;;;;;;22.25;16.80;98007.94;5018596;28;906;-77
2023/02/05 08:48:32;;;;;;;;;;;;;;;22.24;16.79;98005.56;5017967;28;933;-77
2023/02/05 08:50:58;;;;;;;;;;;;;;;22.27;16.65;98005.44;5017785;28;963;-76
2023/02/05 08:53:23;;;;;;;;;;;;;;;21.79;17.05;98010.00;4999779;28;918;-77
2023/02/05 08:55:55;;;;;;;;;;;;;;;21.61;17.46;98021.03;5018286;28;910;-77
2023/02/05 08:58:20;;;;;;;;;;;;;;;21.76;17.29;98027.91;5017790;28;993;-76
2023/02/05 09:00:46;;;;;;;;;;;;;;;21.94;17.00;98037.97;5017610;28;894;-76
2023/02/05 09:03:11;;;;;;;;;;;;;;;21.72;17.24;98047.03;5017813;28;1910;-76
2023/02/05 09:05:37;;;;;;;;;;;;;;;21.71;17.29;98053.94;5017788;28;884;-76
2023/02/05 09:08:03;;;;;;;;;;;;;;;22.24;16.65;98053.75;5018095;28;936;-76
2023/02/05 09:10:28;;;;;;;;;;;;;;;22.08;16.92;98054.56;4999332;28;1026;-76
2023/02/05 09:12:54;;;;;;;;;;;;;;;22.19;16.68;98069.25;5017999;28;866;-76
2023/02/05 09:15:19;;;;;;;;;;;;;;;22.02;17.19;98074.16;5017567;28;953;-76
2023/02/05 09:17:45;;;;;;;;;;;;;;;22.00;16.73;98070.97;5017525;28;898;-76
2023/02/05 09:20:11;;;;;;;;;;;;;;;22.33;16.61;98077.38;5017528;28;950;-76
2023/02/05 09:22:37;;;;;;;;;;;;;;;21.81;17.16;98069.88;5017271;28;934;-75
2023/02/05 09:25:03;;;;;;;;;;;;;;;21.84;17.09;98073.81;5017408;28;1899;-77
2023/02/05 09:27:29;;;;;;;;;;;;;;;21.85;17.06;98081.88;5017491;28;895;-76
2023/02/05 09:29:55;;;;;;;;;;;;;;;22.21;16.73;98075.28;5017429;28;902;-77
2023/02/05 09:32:20;;;;;;;;;;;;;;;21.64;16.94;98082.44;5017115;28;909;-76
2023/02/05 09:34:47;;;;;;;;;;;;;;;21.84;16.84;98080.28;5017166;28;969;-76
2023/02/05 09:37:13;;;;;;;;;;;;;;;22.07;16.73;98089.78;5017037;28;936;-76
2023/02/05 09:39:39;;;;;;;;;;;;;;;21.79;16.84;98089.31;4998528;28;1220;-76
2023/02/05 09:42:07;;;;;;;;;;;;;;;21.94;16.69;98077.63;5017172;28;973;-77
2023/02/05 09:44:51;;;;;;;;;;;;;;;21.94;16.73;98078.41;5016918;28;1898;-76
2023/02/05 09:47:36;;;;;;;;;;;;;;;21.66;17.09;98084.81;5015823;28;908;-77
2023/02/05 09:50:08;;;;;;;;;;;;;;;21.79;16.78;98080.81;5016693;28;871;-77
2023/02/05 09:52:37;;;;;;;;;;;;;;;22.06;16.62;98086.16;5015502;28;986;-76
2023/02/05 09:55:05;;;;;;;;;;;;;;;21.53;16.96;98093.22;5015827;28;994;-76
2023/02/05 09:57:34;;;;;;;;;;;;;;;22.07;16.80;98093.44;5015440;28;1680;-76
2023/02/05 10:00:00;;;;;;;;;;;;;;;22.18;16.38;98095.22;5015834;28;1040;-76
2023/02/05 10:02:54;;;;;;;;;;;;;;;21.78;16.83;98087.72;5016805;28;994;-76
2023/02/05 10:05:20;;;;;;;;;;;;;;;22.12;16.46;98099.81;5014495;28;1906;-76
2023/02/05 10:07:57;;;;;;;;;;;;;;;22.02;16.83;98105.31;5014120;28;975;-76
2023/02/05 10:10:24;;;;;;;;;;;;;;;22.05;16.67;98106.47;5014102;28;1008;-76
2023/02/05 10:12:57;;;;;;;;;;;;;;;22.21;16.46;98103.63;5014338;28;976;-76
2023/02/05 10:15:25;;;;;;;;;;;;;;;21.85;16.69;98103.75;5014300;28;952;-76
2023/02/05 10:17:51;;;;;;;;;;;;;;;22.33;16.34;98111.41;4994789;28;1970;-76
2023/02/05 10:20:34;;;;;;;;;;;;;;;22.19;16.47;98114.63;4994696;28;954;-77
2023/02/05 10:23:04;;;;;;;;;;;;;;;21.95;16.76;98121.69;5001973;28;1542;-77
2023/02/05 10:25:33;;;;;;;;;;;;;;;22.07;16.50;98112.47;5004772;28;1973;-77
2023/02/05 10:28:10;;;;;;;;;;;;;;;22.07;16.62;98120.97;5013959;28;1087;-77
2023/02/05 10:30:40;;;;;;;;;;;;;;;22.12;16.48;98123.28;4997620;28;767;-76
2023/02/05 10:33:25;;;;;;;;;;;;;;;22.26;16.53;98122.91;4946203;29;1104;-76
2023/02/05 10:36:00;;;;;;;;;;;;;;;22.54;16.22;98117.72;4952616;29;1203;-77
2023/02/05 10:38:26;;;;;;;;;;;;;;;21.97;16.66;98113.56;4955574;29;987;-77
2023/02/05 10:40:53;;;;;;;;;;;;;;;22.03;16.90;98109.75;4952535;29;1272;-77
2023/02/05 10:43:29;;;;;;;;;;;;;;;22.68;15.87;98122.16;4936651;29;1982;-77
2023/02/05 10:45:54;;;;;;;;;;;;;;;22.66;16.06;98127.50;4936902;29;928;-77
2023/02/05 10:48:25;;;;;;;;;;;;;;;22.62;15.92;98119.88;4936615;29;909;-76
2023/02/05 10:51:00;;;;;;;;;;;;;;;22.41;16.16;98128.19;4936306;29;956;-77
2023/02/05 10:53:26;;;;;;;;;;;;;;;22.32;16.31;98121.13;4936371;29;950;-76
2023/02/05 10:55:51;;;;;;;;;;;;;;;22.47;16.12;98121.53;4898333;29;1557;-77
2023/02/05 10:58:20;;;;;;;;;;;;;;;22.49;16.37;98118.25;4898251;29;960;-76
2023/02/05 11:00:45;;;;;;;;;;;;;;;22.14;16.68;98120.81;4898760;29;1037;-77
2023/02/05 11:03:12;;;;;;;;;;;;;;;22.38;16.31;98120.56;4906141;28;947;-76
2023/02/05 11:05:37;;;;;;;;;;;;;;;21.93;16.69;98135.53;4939484;29;1956;-76
2023/02/05 11:08:03;;;;;;;;;;;;;;;22.25;16.54;98129.81;4939869;29;1031;-77
2023/02/05 11:10:29;;;;;;;;;;;;;;;22.45;16.19;98128.91;4955423;29;1063;-76
2023/02/05 11:12:54;;;;;;;;;;;;;;;21.92;16.98;98139.59;4939394;28;952;-77
2023/02/05 11:15:24;;;;;;;;;;;;;;;21.81;16.89;98132.19;4955146;28;1045;-77
2023/02/05 11:17:50;;;;;;;;;;;;;;;21.85;16.73;98135.69;4939279;29;1060;-77
2023/02/05 11:20:15;;;;;;;;;;;;;;;22.17;16.45;98142.59;4942494;29;1005;-77
2023/02/05 11:22:41;;;;;;;;;;;;;;;21.76;17.09;98140.38;4959224;29;1089;-76
2023/02/05 11:25:16;;;;;;;;;;;;;;;22.17;16.48;98131.25;4959300;29;1906;-77
2023/02/05 11:27:55;;;;;;;;;;;;;;;22.34;16.31;98127.16;4977064;28;1049;-74
2023/02/05 11:30:24;;;;;;;;;;;;;;;22.06;16.65;98125.03;5000113;28;1018;-74
2023/02/05 11:32:50;;;;;;;;;;;;;;;22.31;16.54;98124.41;4978399;28;1534;-76
2023/02/05 11:35:16;;;;;;;;;;;;;;;22.20;16.71;98126.75;5019376;28;955;-76
2023/02/05 11:37:42;;;;;;;;;;;;;;;22.65;16.26;98140.88;5019446;28;1049;-77
2023/02/05 11:40:27;;;;;;;;;;;;;;;22.06;16.67;98127.88;4998719;28;1357;-76
2023/02/05 11:42:57;;;;;;;;;;;;;;;22.71;15.85;98144.75;4998370;28;953;-77
2023/02/05 11:45:24;;;;;;;;;;;;;;;22.79;16.06;98148.16;4998636;28;2355;-77
2023/02/05 11:47:49;;;;;;;;;;;;;;;22.35;16.25;98137.25;5014697;28;927;-77
2023/02/05 11:50:25;;;;;;;;;;;;;;;22.60;16.08;98152.78;4998580;28;938;-77
2023/02/05 11:52:51;;;;;;;;;;;;;;;22.43;16.07;98145.53;4999690;28;973;-77
2023/02/05 11:55:30;;;;;;;;;;;;;;;21.93;16.67;98158.19;4998565;28;943;-77
2023/02/05 11:58:00;;;;;;;;;;;;;;;21.77;16.84;98159.00;4998528;28;961;-77
2023/02/05 12:00:25;;;;;;;;;;;;;;;22.41;16.21;98150.88;4999566;28;931;-77
2023/02/05 12:03:00;;;;;;;;;;;;;;;21.90;17.02;98156.22;4999352;28;1023;-77
2023/02/05 12:05:28;;;;;;;;;;;;;;;21.66;17.08;98153.59;4999439;28;1918;-75
2023/02/05 12:08:00;;;;;;;;;;;;;;;22.27;16.13;98112.38;4999060;28;1163;-75
2023/02/05 12:10:27;;;;;;;;;;;;;;;22.22;16.36;98164.72;4998164;28;1126;-74
2023/02/05 12:13:06;;;;;;;;;;;;;;;22.22;16.24;98159.06;5014304;28;922;-74
2023/02/05 12:15:45;;;;;;;;;;;;;;;22.76;16.10;98166.88;4998048;28;1194;-74
2023/02/05 12:18:11;;;;;;;;;;;;;;;22.45;16.11;98162.91;4998039;28;912;-74
2023/02/05 12:20:38;;;;;;;;;;;;;;;22.24;16.19;98178.47;4998756;28;927;-74
2023/02/05 12:23:03;;;;;;;;;;;;;;;22.80;16.04;98178.16;4999183;28;871;-75
2023/02/05 12:25:41;;;;;;;;;;;;;;;22.11;16.44;98184.03;4998732;28;1985;-74
2023/02/05 12:28:16;;;;;;;;;;;;;;;22.06;16.50;98190.22;4999175;28;978;-74
2023/02/05 12:30:41;;;;;;;;;;;;;;;22.43;16.02;98188.88;4998325;28;1117;-74
2023/02/05 12:33:10;;;;;;;;;;;;;;;22.49;16.21;98197.66;4998876;28;972;-75
2023/02/05 12:35:41;;;;;;;;;;;;;;;22.60;15.90;98215.16;4998847;28;1103;-74
2023/02/05 12:38:10;;;;;;;;;;;;;;;22.59;15.87;98224.91;4998857;28;948;-74
2023/02/05 12:41:11;;;;;;;;;;;;;;;22.24;16.30;98235.16;5014556;28;1065;-75
2023/02/05 12:43:40;;;;;;;;;;;;;;;22.30;16.12;98237.00;4976749;28;1907;-76
2023/02/05 12:46:17;;;;;;;;;;;;;;;22.07;16.47;98237.16;4960685;28;1213;-74
2023/02/05 12:48:51;;;;;;;;;;;;;;;22.57;15.83;98233.84;4944778;28;1611;-74
2023/02/05 12:51:17;;;;;;;;;;;;;;;22.41;16.03;98235.94;4976763;28;1044;-75
2023/02/05 12:53:57;;;;;;;;;;;;;;;22.11;16.22;98232.22;4976990;28;975;-75
2023/02/05 12:56:30;;;;;;;;;;;;;;;22.31;16.34;98227.25;4960708;28;1192;-74
2023/02/05 12:58:59;;;;;;;;;;;;;;;22.36;16.06;98234.44;4976556;28;1017;-74
2023/02/05 13:01:38;;;;;;;;;;;;;;;22.61;15.99;98230.94;4960515;28;991;-75
2023/02/05 13:04:04;;;;;;;;;;;;;;;22.07;16.50;98237.16;4960545;28;1963;-75
2023/02/05 13:06:33;;;;;;;;;;;;;;;22.34;16.06;98243.38;4960889;28;1117;-75